Time;durP1;ratioP1;P1;durP2;ratioP2;P2;SDS_P1;SDS_P2;PMS_P1;PMS_P2;Temp;Humidity;BMP_temperature;BMP_pressure;BME280_temperature;BME280_humidity;BME280_pressure;Samples;Min_cycle;Max_cycle;Signal;HPM_P1;HPM_P2
2022/06/01 00:00:18;;;;;;;;;;;;;;;;;;5067661;28;20092;-46
2022/06/01 00:02:44;;;;;;;;;;;;;;;;;;5071809;28;19912;-47
2022/06/01 00:05:10;;;;;;;;;;;;;;;;;;5065711;28;19912;-49
2022/06/01 00:07:37;;;;;;;;;;;;;;;;;;5067282;28;19938;-47
2022/06/01 00:10:04;;;;;;;;;;;;;;;;;;5066578;28;19991;-48
2022/06/01 00:12:31;;;;;;;;;;;;;;;;;;5066961;28;19927;-46
2022/06/01 00:14:57;;;;;;;;;;;;;;;;;;5066987;28;19905;-48
2022/06/01 00:17:24;;;;;;;;;;;;;;;;;;5066231;28;19921;-47
2022/06/01 00:19:50;;;;;;;;;;;;;;;;;;5058633;28;19905;-48
2022/06/01 00:22:17;;;;;;;;;;;;;;;;;;5046310;28;19909;-49
2022/06/01 00:24:43;;;;;;;;;;;;;;;;;;5047622;28;20306;-49
2022/06/01 00:27:09;;;;;;;;;;;;;;;;;;5046400;28;19909;-46
2022/06/01 00:29:35;;;;;;;;;;;;;;;;;;5046707;28;19991;-50
2022/06/01 00:32:01;;;;;;;;;;;;;;;;;;5046206;28;19976;-48
2022/06/01 00:34:27;;;;;;;;;;;;;;;;;;5046437;28;19913;-47
2022/06/01 00:36:53;;;;;;;;;;;;;;;;;;5046688;28;20261;-46
2022/06/01 00:39:19;;;;;;;;;;;;;;;;;;5047061;28;19958;-50
2022/06/01 00:41:46;;;;;;;;;;;;;;;;;;5046629;28;19916;-47
2022/06/01 00:44:13;;;;;;;;;;;;;;;;;;5046173;28;19908;-48
2022/06/01 00:46:39;;;;;;;;;;;;;;;;;;5046260;28;19912;-48
2022/06/01 00:49:05;;;;;;;;;;;;;;;;;;5050179;28;19908;-47
2022/06/01 00:51:31;;;;;;;;;;;;;;;;;;5066295;28;19909;-48
2022/06/01 00:53:57;;;;;;;;;;;;;;;;;;5066445;28;19911;-48
2022/06/01 00:56:22;;;;;;;;;;;;;;;;;;5065803;28;19916;-49
2022/06/01 00:58:48;;;;;;;;;;;;;;;;;;5066700;28;19904;-46
2022/06/01 01:01:14;;;;;;;;;;;;;;;;;;5066202;28;20328;-47
2022/06/01 01:03:40;;;;;;;;;;;;;;;;;;5064967;28;19971;-50
2022/06/01 01:06:06;;;;;;;;;;;;;;;;;;5065674;28;19905;-45
2022/06/01 01:08:32;;;;;;;;;;;;;;;;;;5066000;28;19990;-47
2022/06/01 01:10:58;;;;;;;;;;;;;;;;;;5065964;28;19911;-47
2022/06/01 01:13:24;;;;;;;;;;;;;;;;;;5065541;28;20078;-47
2022/06/01 01:15:55;;;;;;;;;;;;;;;;;;5066290;28;19908;-47
2022/06/01 01:18:20;;;;;;;;;;;;;;;;;;5058683;28;19909;-48
2022/06/01 01:20:46;;;;;;;;;;;;;;;;;;5046821;28;20382;-46
2022/06/01 01:23:12;;;;;;;;;;;;;;;;;;5045484;28;19909;-50
2022/06/01 01:25:39;;;;;;;;;;;;;;;;;;5056618;28;19931;-48
2022/06/01 01:28:05;;;;;;;;;;;;;;;;;;5065188;28;19919;-46
2022/06/01 01:30:31;;;;;;;;;;;;;;;;;;5065489;28;20295;-46
2022/06/01 01:32:57;;;;;;;;;;;;;;;;;;5065212;28;19950;-49
2022/06/01 01:35:23;;;;;;;;;;;;;;;;;;5065154;28;19915;-46
2022/06/01 01:37:49;;;;;;;;;;;;;;;;;;5066100;28;19915;-49
2022/06/01 01:40:16;;;;;;;;;;;;;;;;;;5064337;28;19920;-47
2022/06/01 01:42:42;;;;;;;;;;;;;;;;;;5048755;28;19916;-50
2022/06/01 01:45:08;;;;;;;;;;;;;;;;;;5045444;28;19904;-49
2022/06/01 01:47:36;;;;;;;;;;;;;;;;;;5044377;28;19905;-47
2022/06/01 01:50:07;;;;;;;;;;;;;;;;;;5060579;28;20427;-49
2022/06/01 01:52:32;;;;;;;;;;;;;;;;;;5045058;28;19919;-48
2022/06/01 01:54:59;;;;;;;;;;;;;;;;;;5046073;28;19928;-46
2022/06/01 01:57:24;;;;;;;;;;;;;;;;;;5044638;28;19916;-48
2022/06/01 01:59:50;;;;;;;;;;;;;;;;;;5054445;28;20007;-48
2022/06/01 02:02:16;;;;;;;;;;;;;;;;;;5065070;28;20379;-50
2022/06/01 02:07:27;;;;;;;;;;;;;;;;;;5064641;28;19910;-46
2022/06/01 02:12:44;;;;;;;;;;;;;;;;;;5064907;28;20305;-50
2022/06/01 02:15:09;;;;;;;;;;;;;;;;;;5064158;28;19920;-48
2022/06/01 02:17:39;;;;;;;;;;;;;;;;;;5064162;28;20390;-47
2022/06/01 02:20:05;;;;;;;;;;;;;;;;;;5064407;28;19965;-48
2022/06/01 02:22:31;;;;;;;;;;;;;;;;;;5064875;28;19908;-48
2022/06/01 02:24:58;;;;;;;;;;;;;;;;;;5065171;28;19935;-47
2022/06/01 02:27:24;;;;;;;;;;;;;;;;;;5064539;28;20295;-49
2022/06/01 02:29:50;;;;;;;;;;;;;;;;;;5065079;28;19916;-46
2022/06/01 02:32:16;;;;;;;;;;;;;;;;;;5057724;28;19917;-47
2022/06/01 02:34:43;;;;;;;;;;;;;;;;;;5044763;28;19912;-48
2022/06/01 02:37:09;;;;;;;;;;;;;;;;;;5044448;28;19939;-48
2022/06/01 02:39:34;;;;;;;;;;;;;;;;;;5045233;28;20423;-48
2022/06/01 02:44:46;;;;;;;;;;;;;;;;;;5045428;28;19920;-47
2022/06/01 02:47:12;;;;;;;;;;;;;;;;;;5053219;28;19935;-47
2022/06/01 02:49:39;;;;;;;;;;;;;;;;;;5065178;28;19954;-48
2022/06/01 02:52:05;;;;;;;;;;;;;;;;;;5064393;28;20522;-48
2022/06/01 02:54:31;;;;;;;;;;;;;;;;;;5065038;28;19995;-47
2022/06/01 02:56:58;;;;;;;;;;;;;;;;;;5068274;28;19969;-48
2022/06/01 02:59:25;;;;;;;;;;;;;;;;;;5061969;28;20402;-46
2022/06/01 03:01:51;;;;;;;;;;;;;;;;;;5048159;28;19909;-48
2022/06/01 03:04:18;;;;;;;;;;;;;;;;;;5048490;28;20359;-48
2022/06/01 03:06:44;;;;;;;;;;;;;;;;;;5048645;28;20303;-46
2022/06/01 03:09:11;;;;;;;;;;;;;;;;;;5047749;28;19904;-46
2022/06/01 03:11:36;;;;;;;;;;;;;;;;;;5048272;28;19953;-49
2022/06/01 03:14:02;;;;;;;;;;;;;;;;;;5053669;28;20194;-46
2022/06/01 03:16:28;;;;;;;;;;;;;;;;;;5063306;28;20321;-50
2022/06/01 03:18:54;;;;;;;;;;;;;;;;;;5067524;28;19931;-47
2022/06/01 03:21:20;;;;;;;;;;;;;;;;;;5068185;28;19908;-47
2022/06/01 03:23:46;;;;;;;;;;;;;;;;;;5068291;28;19989;-47
2022/06/01 03:26:12;;;;;;;;;;;;;;;;;;5068049;28;19991;-49
2022/06/01 03:28:38;;;;;;;;;;;;;;;;;;5067685;28;19907;-49
2022/06/01 03:31:06;;;;;;;;;;;;;;;;;;5058573;28;19917;-50
2022/06/01 03:33:31;;;;;;;;;;;;;;;;;;5047760;28;19909;-46
2022/06/01 03:35:57;;;;;;;;;;;;;;;;;;5045896;28;19912;-46
2022/06/01 03:38:23;;;;;;;;;;;;;;;;;;5047654;28;19944;-49
2022/06/01 03:40:49;;;;;;;;;;;;;;;;;;5047726;28;19906;-47
2022/06/01 03:43:15;;;;;;;;;;;;;;;;;;5048208;28;19913;-48
2022/06/01 03:45:56;;;;;;;;;;;;;;;;;;5051804;28;19958;-47
2022/06/01 03:48:23;;;;;;;;;;;;;;;;;;5067654;28;19904;-49
2022/06/01 03:50:50;;;;;;;;;;;;;;;;;;5067385;28;20353;-46
2022/06/01 03:53:19;;;;;;;;;;;;;;;;;;5057162;28;19938;-46
2022/06/01 03:55:45;;;;;;;;;;;;;;;;;;5047736;28;19944;-48
2022/06/01 03:58:11;;;;;;;;;;;;;;;;;;5047076;28;20528;-47
2022/06/01 04:00:36;;;;;;;;;;;;;;;;;;5065383;28;20387;-48
2022/06/01 04:03:02;;;;;;;;;;;;;;;;;;5067458;28;19904;-47
2022/06/01 04:05:29;;;;;;;;;;;;;;;;;;5066826;28;20327;-50
2022/06/01 04:07:55;;;;;;;;;;;;;;;;;;5066956;28;20349;-47
2022/06/01 04:10:21;;;;;;;;;;;;;;;;;;5048925;28;19913;-47
2022/06/01 04:12:47;;;;;;;;;;;;;;;;;;5047305;28;19904;-47
2022/06/01 04:15:13;;;;;;;;;;;;;;;;;;5046946;28;19912;-49
2022/06/01 04:17:39;;;;;;;;;;;;;;;;;;5046790;28;19982;-47
2022/06/01 04:20:05;;;;;;;;;;;;;;;;;;5046697;28;20326;-47
2022/06/01 04:22:31;;;;;;;;;;;;;;;;;;5048945;28;19908;-48
2022/06/01 04:24:58;;;;;;;;;;;;;;;;;;5046669;28;19954;-50
2022/06/01 04:27:25;;;;;;;;;;;;;;;;;;5046863;28;19932;-48
2022/06/01 04:29:50;;;;;;;;;;;;;;;;;;5046234;28;19958;-50
2022/06/01 04:32:16;;;;;;;;;;;;;;;;;;5047163;28;19908;-49
2022/06/01 04:34:42;;;;;;;;;;;;;;;;;;5046593;28;19905;-47
2022/06/01 04:37:08;;;;;;;;;;;;;;;;;;5056605;28;19912;-48
2022/06/01 04:39:34;;;;;;;;;;;;;;;;;;5066489;28;20006;-47
2022/06/01 04:42:00;;;;;;;;;;;;;;;;;;5066487;28;19911;-47
2022/06/01 04:44:26;;;;;;;;;;;;;;;;;;5066100;28;20541;-47
2022/06/01 04:46:53;;;;;;;;;;;;;;;;;;5066264;28;19950;-49
2022/06/01 04:49:19;;;;;;;;;;;;;;;;;;5066987;28;19904;-47
2022/06/01 04:51:44;;;;;;;;;;;;;;;;;;5066666;28;19919;-47
2022/06/01 04:54:11;;;;;;;;;;;;;;;;;;5065583;28;19955;-47
2022/06/01 04:56:38;;;;;;;;;;;;;;;;;;5065748;28;20128;-46
2022/06/01 04:59:04;;;;;;;;;;;;;;;;;;5066230;28;19905;-51
2022/06/01 05:01:30;;;;;;;;;;;;;;;;;;5066375;28;19900;-47
2022/06/01 05:03:57;;;;;;;;;;;;;;;;;;5065611;28;19904;-47
2022/06/01 05:06:24;;;;;;;;;;;;;;;;;;5066112;28;19991;-49
2022/06/01 05:08:50;;;;;;;;;;;;;;;;;;5065097;28;19955;-46
2022/06/01 05:11:16;;;;;;;;;;;;;;;;;;5066615;28;19940;-48
2022/06/01 05:13:43;;;;;;;;;;;;;;;;;;5064856;28;20717;-47
2022/06/01 05:16:10;;;;;;;;;;;;;;;;;;5057225;28;20485;-48
2022/06/01 05:18:36;;;;;;;;;;;;;;;;;;5044856;28;19905;-47
2022/06/01 05:21:02;;;;;;;;;;;;;;;;;;5045963;28;19915;-47
2022/06/01 05:23:28;;;;;;;;;;;;;;;;;;5045501;28;20295;-50
2022/06/01 05:25:54;;;;;;;;;;;;;;;;;;5045476;28;20054;-49
2022/06/01 05:28:21;;;;;;;;;;;;;;;;;;5045958;28;19905;-47
2022/06/01 05:30:48;;;;;;;;;;;;;;;;;;5046571;28;20066;-48
2022/06/01 05:33:14;;;;;;;;;;;;;;;;;;5046248;28;19905;-50
2022/06/01 05:35:40;;;;;;;;;;;;;;;;;;5045372;28;20089;-48
2022/06/01 05:38:06;;;;;;;;;;;;;;;;;;5045995;28;19913;-45
2022/06/01 05:40:32;;;;;;;;;;;;;;;;;;5045728;28;19905;-48
2022/06/01 05:42:58;;;;;;;;;;;;;;;;;;5045899;28;19908;-48
2022/06/01 05:45:24;;;;;;;;;;;;;;;;;;5049264;28;20382;-46
2022/06/01 05:47:50;;;;;;;;;;;;;;;;;;5045466;28;20052;-47
2022/06/01 05:50:15;;;;;;;;;;;;;;;;;;5046960;28;19913;-48
2022/06/01 05:52:41;;;;;;;;;;;;;;;;;;5046106;28;19936;-47
2022/06/01 05:55:07;;;;;;;;;;;;;;;;;;5054552;28;19973;-49
2022/06/01 05:57:33;;;;;;;;;;;;;;;;;;5066688;28;19908;-48
2022/06/01 06:00:00;;;;;;;;;;;;;;;;;;5066244;28;19911;-47
2022/06/01 06:02:26;;;;;;;;;;;;;;;;;;5066241;28;19908;-50
2022/06/01 06:04:52;;;;;;;;;;;;;;;;;;5066649;28;19946;-48
2022/06/01 06:07:18;;;;;;;;;;;;;;;;;;5070049;28;19981;-48
2022/06/01 06:09:44;;;;;;;;;;;;;;;;;;5069564;28;19916;-47
2022/06/01 06:12:10;;;;;;;;;;;;;;;;;;5075313;28;19909;-47
2022/06/01 06:14:36;;;;;;;;;;;;;;;;;;5066233;28;19908;-48
2022/06/01 06:17:02;;;;;;;;;;;;;;;;;;5059902;28;19982;-49
2022/06/01 06:19:28;;;;;;;;;;;;;;;;;;5065537;28;19916;-50
2022/06/01 06:21:54;;;;;;;;;;;;;;;;;;5066521;28;19908;-48
2022/06/01 06:24:20;;;;;;;;;;;;;;;;;;5072760;28;19909;-51
2022/06/01 06:26:46;;;;;;;;;;;;;;;;;;5066649;28;19953;-50
2022/06/01 06:29:12;;;;;;;;;;;;;;;;;;5070381;28;19908;-48
2022/06/01 06:31:38;;;;;;;;;;;;;;;;;;5064213;28;19992;-50
2022/06/01 06:34:03;;;;;;;;;;;;;;;;;;5071642;28;19959;-47
2022/06/01 06:36:29;;;;;;;;;;;;;;;;;;5070534;28;19983;-50
2022/06/01 06:38:55;;;;;;;;;;;;;;;;;;5051338;28;19909;-48
2022/06/01 06:41:21;;;;;;;;;;;;;;;;;;5061720;28;19932;-50
2022/06/01 06:43:47;;;;;;;;;;;;;;;;;;5069308;28;19909;-50
2022/06/01 06:46:13;;;;;;;;;;;;;;;;;;5061150;28;19940;-50
2022/06/01 06:48:39;;;;;;;;;;;;;;;;;;5072598;28;20556;-49
2022/06/01 06:51:05;;;;;;;;;;;;;;;;;;5070195;28;19961;-48
2022/06/01 06:53:31;;;;;;;;;;;;;;;;;;5070327;28;19958;-51
2022/06/01 06:55:57;;;;;;;;;;;;;;;;;;5069721;28;19916;-51
2022/06/01 06:58:23;;;;;;;;;;;;;;;;;;5064085;28;19963;-51
2022/06/01 07:00:49;;;;;;;;;;;;;;;;;;5063954;28;19912;-50
2022/06/01 07:03:15;;;;;;;;;;;;;;;;;;5053043;28;19994;-51
2022/06/01 07:08:26;;;;;;;;;;;;;;;;;;5060249;28;19939;-51
2022/06/01 07:10:52;;;;;;;;;;;;;;;;;;5060164;28;19916;-51
2022/06/01 07:13:18;;;;;;;;;;;;;;;;;;5066131;28;19908;-51
2022/06/01 07:15:44;;;;;;;;;;;;;;;;;;5071933;28;19912;-50
2022/06/01 07:18:10;;;;;;;;;;;;;;;;;;5068880;28;19916;-49
2022/06/01 07:20:36;;;;;;;;;;;;;;;;;;5069717;28;19909;-52
2022/06/01 07:23:02;;;;;;;;;;;;;;;;;;5069849;28;20371;-52
2022/06/01 07:25:28;;;;;;;;;;;;;;;;;;5056697;28;19924;-51
2022/06/01 07:27:54;;;;;;;;;;;;;;;;;;5050065;28;19912;-50
2022/06/01 07:30:20;;;;;;;;;;;;;;;;;;5068891;28;20303;-48
2022/06/01 07:32:46;;;;;;;;;;;;;;;;;;5069646;28;19912;-51
2022/06/01 07:35:12;;;;;;;;;;;;;;;;;;5069787;28;19947;-50
2022/06/01 07:43:07;;;;;;;;;;;;;;;;;;5070028;28;19914;-49
2022/06/01 07:45:34;;;;;;;;;;;;;;;;;;5053195;28;19913;-52
2022/06/01 07:48:00;;;;;;;;;;;;;;;;;;5071842;28;19909;-49
2022/06/01 07:50:26;;;;;;;;;;;;;;;;;;5077504;28;19908;-50
2022/06/01 07:52:51;;;;;;;;;;;;;;;;;;5075041;28;19962;-49
2022/06/01 07:55:17;;;;;;;;;;;;;;;;;;5059552;28;19912;-49
2022/06/01 07:57:43;;;;;;;;;;;;;;;;;;5084554;28;20003;-49
2022/06/01 08:00:09;;;;;;;;;;;;;;;;;;5062316;28;19915;-49
2022/06/01 08:02:35;;;;;;;;;;;;;;;;;;5067339;28;19920;-53
2022/06/01 08:05:01;;;;;;;;;;;;;;;;;;5067390;28;19916;-49
2022/06/01 08:07:28;;;;;;;;;;;;;;;;;;5059595;28;19913;-48
2022/06/01 08:09:53;;;;;;;;;;;;;;;;;;5058771;28;19916;-48
2022/06/01 08:15:04;;;;;;;;;;;;;;;;;;5066861;28;19993;-47
2022/06/01 08:17:30;;;;;;;;;;;;;;;;;;5072629;28;20387;-49
2022/06/01 08:19:56;;;;;;;;;;;;;;;;;;5063721;28;20015;-51
2022/06/01 08:22:22;;;;;;;;;;;;;;;;;;5062428;28;19915;-51
2022/06/01 08:24:48;;;;;;;;;;;;;;;;;;5070302;28;20367;-48
2022/06/01 08:27:13;;;;;;;;;;;;;;;;;;5067660;28;19909;-50
2022/06/01 08:29:39;;;;;;;;;;;;;;;;;;5063653;28;20345;-48
2022/06/01 08:32:06;;;;;;;;;;;;;;;;;;5067983;28;19908;-51
2022/06/01 08:34:35;;;;;;;;;;;;;;;;;;5065582;28;19915;-50
2022/06/01 08:37:00;;;;;;;;;;;;;;;;;;5081676;28;19919;-50
2022/06/01 08:39:26;;;;;;;;;;;;;;;;;;5078326;28;20299;-51
2022/06/01 08:41:52;;;;;;;;;;;;;;;;;;5082694;28;19908;-47
2022/06/01 08:44:18;;;;;;;;;;;;;;;;;;5061527;28;20036;-47
2022/06/01 08:46:45;;;;;;;;;;;;;;;;;;5067913;28;19908;-51
2022/06/01 08:49:12;;;;;;;;;;;;;;;;;;5067008;28;19923;-48
2022/06/01 08:51:38;;;;;;;;;;;;;;;;;;5050169;28;19913;-49
2022/06/01 08:54:04;;;;;;;;;;;;;;;;;;5065990;28;19912;-51
2022/06/01 08:56:29;;;;;;;;;;;;;;;;;;5054087;28;19916;-49
2022/06/01 08:58:55;;;;;;;;;;;;;;;;;;5064530;28;19931;-51
2022/06/01 09:01:21;;;;;;;;;;;;;;;;;;5050503;28;19909;-48
2022/06/01 09:03:47;;;;;;;;;;;;;;;;;;5047704;28;19905;-48
2022/06/01 09:06:14;;;;;;;;;;;;;;;;;;5063336;28;20041;-50
2022/06/01 09:08:40;;;;;;;;;;;;;;;;;;5067277;28;20003;-50
2022/06/01 09:11:06;;;;;;;;;;;;;;;;;;5058667;28;20363;-48
2022/06/01 09:13:32;;;;;;;;;;;;;;;;;;5068312;28;19916;-51
2022/06/01 09:15:58;;;;;;;;;;;;;;;;;;5069222;28;20027;-48
2022/06/01 09:18:24;;;;;;;;;;;;;;;;;;5062981;28;20038;-49
2022/06/01 09:23:35;;;;;;;;;;;;;;;;;;5068896;28;19915;-49
2022/06/01 09:26:03;;;;;;;;;;;;;;;;;;5065180;28;19909;-51
2022/06/01 09:28:30;;;;;;;;;;;;;;;;;;5065961;28;19916;-52
2022/06/01 09:30:56;;;;;;;;;;;;;;;;;;5066524;28;20323;-52
2022/06/01 09:33:22;;;;;;;;;;;;;;;;;;5065228;28;19916;-51
2022/06/01 09:35:49;;;;;;;;;;;;;;;;;;5068212;28;19908;-52
2022/06/01 09:38:15;;;;;;;;;;;;;;;;;;5047423;28;20410;-51
2022/06/01 09:40:41;;;;;;;;;;;;;;;;;;5051127;28;19916;-52
2022/06/01 09:43:08;;;;;;;;;;;;;;;;;;5064228;28;20329;-51
2022/06/01 09:45:34;;;;;;;;;;;;;;;;;;5061798;28;19954;-50
2022/06/01 09:48:00;;;;;;;;;;;;;;;;;;5054815;28;19913;-51
2022/06/01 09:50:26;;;;;;;;;;;;;;;;;;5052679;28;19908;-51
2022/06/01 09:52:53;;;;;;;;;;;;;;;;;;5066189;28;20049;-52
2022/06/01 09:55:19;;;;;;;;;;;;;;;;;;5063387;28;19912;-48
2022/06/01 09:57:46;;;;;;;;;;;;;;;;;;5069181;28;20313;-51
2022/06/01 10:08:28;;;;;;;;;;;;;;;;;;5064972;28;19947;-50
2022/06/01 10:10:56;;;;;;;;;;;;;;;;;;5056730;28;19919;-52
2022/06/01 10:13:22;;;;;;;;;;;;;;;;;;5061236;28;19991;-50
2022/06/01 10:15:48;;;;;;;;;;;;;;;;;;5066562;28;20388;-52
2022/06/01 10:18:13;;;;;;;;;;;;;;;;;;5064152;28;19942;-52
2022/06/01 10:20:39;;;;;;;;;;;;;;;;;;5064566;28;19920;-50
2022/06/01 10:23:05;;;;;;;;;;;;;;;;;;5065526;28;19943;-48
2022/06/01 10:25:32;;;;;;;;;;;;;;;;;;5064827;28;19928;-51
2022/06/01 10:27:59;;;;;;;;;;;;;;;;;;5073222;28;20279;-48
2022/06/01 10:30:26;;;;;;;;;;;;;;;;;;5060971;28;20011;-49
2022/06/01 10:32:53;;;;;;;;;;;;;;;;;;5045595;28;19912;-51
2022/06/01 10:35:19;;;;;;;;;;;;;;;;;;5064826;28;19998;-52
2022/06/01 10:37:45;;;;;;;;;;;;;;;;;;5064905;28;19928;-49
2022/06/01 10:40:11;;;;;;;;;;;;;;;;;;5070169;28;19908;-52
2022/06/01 10:45:22;;;;;;;;;;;;;;;;;;5063571;28;19960;-52
2022/06/01 10:47:49;;;;;;;;;;;;;;;;;;5066846;28;19913;-52
2022/06/01 10:50:18;;;;;;;;;;;;;;;;;;5046293;28;19916;-52
2022/06/01 10:52:45;;;;;;;;;;;;;;;;;;5058318;28;20317;-51
2022/06/01 10:55:11;;;;;;;;;;;;;;;;;;5064120;28;19916;-49
2022/06/01 10:57:39;;;;;;;;;;;;;;;;;;5056082;28;19916;-52
2022/06/01 11:00:06;;;;;;;;;;;;;;;;;;5065265;28;19942;-52
2022/06/01 11:02:32;;;;;;;;;;;;;;;;;;5066857;28;19904;-51
2022/06/01 11:04:57;;;;;;;;;;;;;;;;;;5048822;28;20287;-52
2022/06/01 11:07:23;;;;;;;;;;;;;;;;;;5048616;28;19909;-52
2022/06/01 11:09:50;;;;;;;;;;;;;;;;;;5059471;28;19977;-52
2022/06/01 11:12:16;;;;;;;;;;;;;;;;;;5063308;28;19990;-52
2022/06/01 11:14:42;;;;;;;;;;;;;;;;;;5062664;28;19999;-53
2022/06/01 11:17:08;;;;;;;;;;;;;;;;;;5067714;28;19920;-52
2022/06/01 11:19:34;;;;;;;;;;;;;;;;;;5067034;28;19908;-52
2022/06/01 11:22:00;;;;;;;;;;;;;;;;;;5066903;28;19919;-52
2022/06/01 11:24:27;;;;;;;;;;;;;;;;;;5066003;28;20362;-52
2022/06/01 11:26:53;;;;;;;;;;;;;;;;;;5066761;28;19908;-52
2022/06/01 11:29:19;;;;;;;;;;;;;;;;;;5082436;28;19953;-51
2022/06/01 11:31:45;;;;;;;;;;;;;;;;;;5070786;28;19913;-53
2022/06/01 11:34:11;;;;;;;;;;;;;;;;;;5055428;28;19954;-52
2022/06/01 11:36:37;;;;;;;;;;;;;;;;;;5072562;28;20010;-52
2022/06/01 11:39:03;;;;;;;;;;;;;;;;;;5070098;28;19995;-52
2022/06/01 11:41:29;;;;;;;;;;;;;;;;;;5069810;28;19911;-53
2022/06/01 11:43:55;;;;;;;;;;;;;;;;;;5069763;28;19916;-53
2022/06/01 11:46:21;;;;;;;;;;;;;;;;;;5083853;28;19934;-51
2022/06/01 11:48:47;;;;;;;;;;;;;;;;;;5066631;28;19963;-53
2022/06/01 11:51:13;;;;;;;;;;;;;;;;;;5067634;28;19912;-52
2022/06/01 11:53:39;;;;;;;;;;;;;;;;;;5068997;28;19912;-52
2022/06/01 11:56:05;;;;;;;;;;;;;;;;;;5068561;28;19927;-53
2022/06/01 11:58:31;;;;;;;;;;;;;;;;;;5083844;28;19920;-52
2022/06/01 12:00:58;;;;;;;;;;;;;;;;;;5088993;28;19908;-53
2022/06/01 12:03:24;;;;;;;;;;;;;;;;;;5088989;28;19943;-52
2022/06/01 12:05:51;;;;;;;;;;;;;;;;;;5088454;28;20505;-52
2022/06/01 12:08:17;;;;;;;;;;;;;;;;;;5087897;28;19908;-52
2022/06/01 12:10:44;;;;;;;;;;;;;;;;;;5087023;28;19911;-53
2022/06/01 12:13:10;;;;;;;;;;;;;;;;;;5086998;28;19915;-52
2022/06/01 12:15:38;;;;;;;;;;;;;;;;;;5087090;28;19908;-52
2022/06/01 12:18:04;;;;;;;;;;;;;;;;;;5087272;28;19915;-53
2022/06/01 12:20:30;;;;;;;;;;;;;;;;;;5086834;28;19908;-52
2022/06/01 12:28:31;;;;;;;;;;;;;;;;;;5086577;28;19946;-53
2022/06/01 12:30:58;;;;;;;;;;;;;;;;;;5085325;28;20150;-52
2022/06/01 12:33:25;;;;;;;;;;;;;;;;;;5086768;28;19957;-53
2022/06/01 12:35:51;;;;;;;;;;;;;;;;;;5086860;28;19908;-53
2022/06/01 12:38:17;;;;;;;;;;;;;;;;;;5087463;28;19918;-52
2022/06/01 12:40:44;;;;;;;;;;;;;;;;;;5086501;28;19911;-53
2022/06/01 12:43:10;;;;;;;;;;;;;;;;;;5086577;28;19904;-53
2022/06/01 12:45:36;;;;;;;;;;;;;;;;;;5086431;28;19915;-53
2022/06/01 12:48:02;;;;;;;;;;;;;;;;;;5086948;28;20386;-51
2022/06/01 12:50:28;;;;;;;;;;;;;;;;;;5086463;28;19908;-53
2022/06/01 12:52:54;;;;;;;;;;;;;;;;;;5072039;28;21245;-53
2022/06/01 12:55:20;;;;;;;;;;;;;;;;;;5066091;28;20373;-52
2022/06/01 12:57:46;;;;;;;;;;;;;;;;;;5066371;28;20380;-52
2022/06/01 13:00:12;;;;;;;;;;;;;;;;;;5066068;28;19991;-53
2022/06/01 13:02:38;;;;;;;;;;;;;;;;;;5065368;28;19947;-52
2022/06/01 13:05:04;;;;;;;;;;;;;;;;;;5066065;28;20003;-52
2022/06/01 13:07:30;;;;;;;;;;;;;;;;;;5066051;28;19904;-52
2022/06/01 13:09:56;;;;;;;;;;;;;;;;;;5065525;28;20505;-51
2022/06/01 13:12:22;;;;;;;;;;;;;;;;;;5065565;28;19958;-51
2022/06/01 13:14:48;;;;;;;;;;;;;;;;;;5065987;28;19912;-52
2022/06/01 13:17:14;;;;;;;;;;;;;;;;;;5066367;28;19953;-51
2022/06/01 13:19:40;;;;;;;;;;;;;;;;;;5065442;28;19954;-52
2022/06/01 13:22:06;;;;;;;;;;;;;;;;;;5065556;28;19912;-51
2022/06/01 13:24:33;;;;;;;;;;;;;;;;;;5065298;28;19908;-51
2022/06/01 13:26:59;;;;;;;;;;;;;;;;;;5065158;28;19905;-50
2022/06/01 13:29:25;;;;;;;;;;;;;;;;;;5065381;28;20433;-51
2022/06/01 13:31:51;;;;;;;;;;;;;;;;;;5065336;28;20314;-51
2022/06/01 13:34:18;;;;;;;;;;;;;;;;;;5065978;28;19909;-51
2022/06/01 13:36:44;;;;;;;;;;;;;;;;;;5065932;28;19909;-52
2022/06/01 13:39:11;;;;;;;;;;;;;;;;;;5064635;28;19904;-51
2022/06/01 13:41:37;;;;;;;;;;;;;;;;;;5065014;28;19908;-49
2022/06/01 13:44:05;;;;;;;;;;;;;;;;;;5065227;28;19911;-50
2022/06/01 13:46:30;;;;;;;;;;;;;;;;;;5065299;28;19983;-50
2022/06/01 13:48:56;;;;;;;;;;;;;;;;;;5064892;28;19973;-49
2022/06/01 13:51:22;;;;;;;;;;;;;;;;;;5065264;28;20363;-49
2022/06/01 13:53:48;;;;;;;;;;;;;;;;;;5065242;28;19938;-48
2022/06/01 13:56:18;;;;;;;;;;;;;;;;;;5065292;28;19958;-47
2022/06/01 13:58:45;;;;;;;;;;;;;;;;;;5065539;28;20208;-52
2022/06/01 14:01:11;;;;;;;;;;;;;;;;;;5065072;28;19958;-51
2022/06/01 14:03:37;;;;;;;;;;;;;;;;;;5065046;28;19904;-50
2022/06/01 14:06:03;;;;;;;;;;;;;;;;;;5065008;28;19954;-49
2022/06/01 14:08:29;;;;;;;;;;;;;;;;;;5062011;28;20339;-48
2022/06/01 14:10:57;;;;;;;;;;;;;;;;;;5056512;28;19924;-48
2022/06/01 14:13:22;;;;;;;;;;;;;;;;;;5060839;28;20391;-50
2022/06/01 14:15:48;;;;;;;;;;;;;;;;;;5066610;28;19926;-48
2022/06/01 14:18:14;;;;;;;;;;;;;;;;;;5060981;28;19913;-50
2022/06/01 14:20:40;;;;;;;;;;;;;;;;;;5056371;28;19908;-51
2022/06/01 14:23:06;;;;;;;;;;;;;;;;;;5062968;28;20447;-49
2022/06/01 14:28:29;;;;;;;;;;;;;;;;;;5066980;28;19978;-50
2022/06/01 14:30:55;;;;;;;;;;;;;;;;;;5066209;28;19958;-49
2022/06/01 14:33:21;;;;;;;;;;;;;;;;;;5066012;28;19947;-50
2022/06/01 14:35:47;;;;;;;;;;;;;;;;;;5066747;28;19909;-51
2022/06/01 14:38:13;;;;;;;;;;;;;;;;;;5050968;28;20042;-50
2022/06/01 14:40:39;;;;;;;;;;;;;;;;;;5046228;28;20758;-47
2022/06/01 14:43:04;;;;;;;;;;;;;;;;;;5048557;28;19912;-48
2022/06/01 14:45:30;;;;;;;;;;;;;;;;;;5063696;28;19916;-50
2022/06/01 14:47:56;;;;;;;;;;;;;;;;;;5055114;28;19912;-50
2022/06/01 14:50:22;;;;;;;;;;;;;;;;;;5047932;28;19909;-51
2022/06/01 14:52:48;;;;;;;;;;;;;;;;;;5050372;28;19917;-49
2022/06/01 14:55:14;;;;;;;;;;;;;;;;;;5065238;28;19913;-50
2022/06/01 14:57:40;;;;;;;;;;;;;;;;;;5069356;28;19912;-47
2022/06/01 15:00:06;;;;;;;;;;;;;;;;;;5070567;28;19908;-49
2022/06/01 15:02:32;;;;;;;;;;;;;;;;;;5073691;28;19912;-50
2022/06/01 15:05:01;;;;;;;;;;;;;;;;;;5070605;28;20042;-51
2022/06/01 15:07:26;;;;;;;;;;;;;;;;;;5083200;28;19959;-50
2022/06/01 15:09:52;;;;;;;;;;;;;;;;;;5049535;28;20031;-48
2022/06/01 15:12:19;;;;;;;;;;;;;;;;;;5064026;28;20053;-50
2022/06/01 15:14:45;;;;;;;;;;;;;;;;;;5070131;28;19909;-49
2022/06/01 15:17:11;;;;;;;;;;;;;;;;;;5073546;28;19937;-48
2022/06/01 15:19:36;;;;;;;;;;;;;;;;;;5068915;28;19912;-50
2022/06/01 15:22:02;;;;;;;;;;;;;;;;;;5071382;28;19912;-48
2022/06/01 15:24:28;;;;;;;;;;;;;;;;;;5064583;28;19935;-50
2022/06/01 15:26:54;;;;;;;;;;;;;;;;;;5070731;28;20233;-48
2022/06/01 15:40:19;;;;;;;;;;;;;;;;;;5059665;28;19954;-51
2022/06/01 15:42:48;;;;;;;;;;;;;;;;;;5061347;28;19917;-50
2022/06/01 15:45:14;;;;;;;;;;;;;;;;;;5053578;28;19913;-48
2022/06/01 15:47:40;;;;;;;;;;;;;;;;;;5060067;28;19913;-50
2022/06/01 15:50:08;;;;;;;;;;;;;;;;;;5078005;28;20341;-47
2022/06/01 15:52:34;;;;;;;;;;;;;;;;;;5067742;28;19905;-50
2022/06/01 15:55:00;;;;;;;;;;;;;;;;;;5068513;28;19916;-51
2022/06/01 15:57:27;;;;;;;;;;;;;;;;;;5076109;28;19973;-50
2022/06/01 15:59:53;;;;;;;;;;;;;;;;;;5069729;28;19915;-50
2022/06/01 16:02:19;;;;;;;;;;;;;;;;;;5067587;28;19908;-51
2022/06/01 16:04:45;;;;;;;;;;;;;;;;;;5075874;28;19931;-51
2022/06/01 16:07:11;;;;;;;;;;;;;;;;;;5069397;28;20212;-51
2022/06/01 16:09:37;;;;;;;;;;;;;;;;;;5067006;28;19947;-49
2022/06/01 16:12:02;;;;;;;;;;;;;;;;;;5057411;28;19912;-51
2022/06/01 16:14:28;;;;;;;;;;;;;;;;;;5066499;28;19965;-49
2022/06/01 16:16:54;;;;;;;;;;;;;;;;;;5065412;28;19912;-51
2022/06/01 16:19:21;;;;;;;;;;;;;;;;;;5066324;28;19915;-50
2022/06/01 16:21:47;;;;;;;;;;;;;;;;;;5065587;28;19940;-47
2022/06/01 16:24:13;;;;;;;;;;;;;;;;;;5065215;28;20434;-48
2022/06/01 16:26:39;;;;;;;;;;;;;;;;;;5077546;28;19920;-48
2022/06/01 16:29:05;;;;;;;;;;;;;;;;;;5066447;28;20406;-48
2022/06/01 16:31:31;;;;;;;;;;;;;;;;;;5065506;28;19904;-49
2022/06/01 16:33:57;;;;;;;;;;;;;;;;;;5065109;28;19919;-50
2022/06/01 16:36:29;;;;;;;;;;;;;;;;;;5069104;28;19908;-50
2022/06/01 16:38:55;;;;;;;;;;;;;;;;;;5068029;28;19951;-49
2022/06/01 16:41:21;;;;;;;;;;;;;;;;;;5066301;28;19955;-49
2022/06/01 16:43:46;;;;;;;;;;;;;;;;;;5077590;28;19919;-49
2022/06/01 16:46:12;;;;;;;;;;;;;;;;;;5084747;28;19912;-50
2022/06/01 16:48:41;;;;;;;;;;;;;;;;;;5066575;28;19908;-48
2022/06/01 16:51:08;;;;;;;;;;;;;;;;;;5066479;28;19936;-48
2022/06/01 16:53:34;;;;;;;;;;;;;;;;;;5065320;28;19904;-49
2022/06/01 16:56:00;;;;;;;;;;;;;;;;;;5065952;28;20002;-50
2022/06/01 16:58:26;;;;;;;;;;;;;;;;;;5068309;28;20003;-50
2022/06/01 17:00:52;;;;;;;;;;;;;;;;;;5075873;28;19919;-50
2022/06/01 17:03:18;;;;;;;;;;;;;;;;;;5075415;28;20193;-48
2022/06/01 17:05:44;;;;;;;;;;;;;;;;;;5075881;28;19955;-48
2022/06/01 17:08:10;;;;;;;;;;;;;;;;;;5065052;28;19955;-49
2022/06/01 17:10:36;;;;;;;;;;;;;;;;;;5065793;28;20443;-48
2022/06/01 17:13:03;;;;;;;;;;;;;;;;;;5064283;28;20268;-48
2022/06/01 17:15:29;;;;;;;;;;;;;;;;;;5065160;28;19908;-49
2022/06/01 17:17:56;;;;;;;;;;;;;;;;;;5065461;28;19916;-51
2022/06/01 17:20:23;;;;;;;;;;;;;;;;;;5068345;28;20132;-47
2022/06/01 17:22:50;;;;;;;;;;;;;;;;;;5078601;28;20486;-50
2022/06/01 17:25:16;;;;;;;;;;;;;;;;;;5069816;28;19908;-50
2022/06/01 17:27:42;;;;;;;;;;;;;;;;;;5064858;28;19912;-48
2022/06/01 17:30:08;;;;;;;;;;;;;;;;;;5065741;28;19908;-50